Create Tblcommutelog Verified Points Advance Search
| # | Trip ID | Id Commuter | Trip Date | Trip Num | Current Lat | Current Lng | Delta Distance | Current Time | Activity | Activity Confidence | Current Speed | |
|---|---|---|---|---|---|---|---|---|---|---|---|---|
| 71841 | 250730_781890_16649582_1657 | 781890 | (not set) | (not set) | 39.108340359888 | -77.544612692913 | 1.1962 | 2025-07-30 17:09:06 | in_vehicle | 100 | 4.1842874641251 | |
| 71842 | 250730_785447_16655759_1608 | 785447 | (not set) | (not set) | 39.30608037805 | -76.59790007572 | 40.0266 | 2025-07-30 17:09:17 | in_vehicle | 100 | -0.44703925898772 | |
| 71843 | 250730_785447_16655759_1608 | 785447 | (not set) | (not set) | 39.306196981268 | -76.595309736685 | 41.0174 | 2025-07-30 17:09:27 | in_vehicle | 100 | 6.298783159137 | |
| 71844 | 250730_786124_16654401_1612 | 786124 | (not set) | (not set) | 39.397505518652 | -77.423697597804 | 33.5698 | 2025-07-30 17:09:39 | in_vehicle | 100 | 8.6636208391821 | |
| 71845 | 250730_769852_16636925_1618 | 769852 | (not set) | (not set) | 38.962586446318 | -77.100258678513 | 6.0696 | 2025-07-30 17:09:53 | in_vehicle | 100 | 3.2902089461497 | |
| 71846 | 250730_781975_16654380_1632 | 781975 | (not set) | (not set) | 38.866569759833 | -77.05427518741 | 4.949 | 2025-07-30 17:10:06 | in_vehicle | 100 | 3.9071231235527 | |
| 71847 | 250730_783758_16651529_1644 | 783758 | (not set) | (not set) | 38.8856963696 | -77.156378842922 | 12.7501 | 2025-07-30 17:10:17 | in_vehicle | 100 | 0 | |
| 71848 | 250730_783758_16651529_1644 | 783758 | (not set) | (not set) | 38.885521032103 | -77.155825683704 | 12.7823 | 2025-07-30 17:10:27 | in_vehicle | 100 | 4.8593167451966 | |
| 71849 | 250730_753800_16619976_1641 | 753800 | (not set) | (not set) | 38.866597529764 | -76.984394910402 | 4.2361 | 2025-07-30 17:10:37 | on_bicycle | 100 | 0.70185163661073 | |
| 71850 | 250730_781975_16654380_1632 | 781975 | (not set) | (not set) | 38.867253072407 | -77.062029476515 | 5.3759 | 2025-07-30 17:10:45 | in_vehicle | 100 | 11.520201704114 | |
| 71851 | 250730_776471_16644004_1618 | 776471 | (not set) | (not set) | 39.36939628672 | -76.681084838326 | 9.6893 | 2025-07-30 17:10:58 | running | 100 | 0.99689754754263 | |
| 71852 | 250730_781975_16654380_1632 | 781975 | (not set) | (not set) | 38.864734916316 | -77.068296383254 | 5.7624 | 2025-07-30 17:11:09 | in_vehicle | 100 | 11.707958192888 | |
| 71853 | 250730_782599_16650304_1654 | 782599 | (not set) | (not set) | 39.017968735461 | -77.100143057002 | 0.5191 | 2025-07-30 17:11:16 | in_vehicle | 100 | -0.44703925898772 | |
| 71854 | 250730_786124_16654401_1612 | 786124 | (not set) | (not set) | 39.404714504678 | -77.431376452858 | 34.215 | 2025-07-30 17:11:22 | in_vehicle | 100 | 4.6670898638318 | |
| 71855 | 250730_785331_16653457_1700 | 785331 | (not set) | (not set) | 38.957842969051 | -77.388816639001 | 2.1911 | 2025-07-30 17:11:31 | in_vehicle | 100 | 6.1870233443901 | |
| 71856 | 250730_783758_16651529_1644 | 783758 | (not set) | (not set) | 38.881052443292 | -77.142374212185 | 13.5703 | 2025-07-30 17:11:42 | in_vehicle | 100 | 7.7695423212066 | |
| 71857 | 250730_787203_16655652_1623 | 787203 | (not set) | (not set) | 39.479415139769 | -76.851547060263 | 19.7354 | 2025-07-30 17:11:49 | in_vehicle | 100 | 6.5804178922993 | |
| 71858 | 250730_784252_16655430_1703 | 784252 | (not set) | (not set) | 39.236110725977 | -76.813791722981 | 5.4379 | 2025-07-30 17:11:56 | in_vehicle | 100 | 13.09825028834 | |
| 71859 | 250730_785331_16653457_1700 | 785331 | (not set) | (not set) | 38.959359851777 | -77.393133184432 | 2.4465 | 2025-07-30 17:12:00 | in_vehicle | 100 | 6.410542973884 | |
| 71860 | 250730_783758_16651529_1644 | 783758 | (not set) | (not set) | 38.879624408888 | -77.138012877456 | 13.8253 | 2025-07-30 17:12:06 | in_vehicle | 100 | 7.4208516991962 |